Overseas Santorini — V7TB5 — position and weather

sailwx.info

Track history (hours):
 
Tides and Currents Weather Stations Pressure Air Temp Water Temp Dewpoint Dewpoint Depression Visibility Wind Speed Wind Dir Waves Ship Positions

Overseas Santorini

Last reported at 2017-Nov-17 19:56 UTC. Time now 2017-Nov-17 21:35 UTC.
Position N 46°34' E 031°14'.

Length 183 m; draft 11 m.

Type: Ship (hazmat cat A). MMSI: 538003772.

Date/timePositionNaut miles runAvg speedWind from/ knotsBaromVisibWave heightAir tempDewpointWater temp
2017-Nov-17 19:56N 46°34' E 031°14'0 0.0
2017-Nov-17 17:50N 46°34' E 031°14'0 0.0
2017-Nov-17 12:14N 46°34' E 031°14'0 0.0
2017-Nov-17 11:50N 46°34' E 031°14'0 0.0
2017-Nov-17 11:20N 46°34' E 031°14'0 0.0
2017-Nov-17 10:56N 46°34' E 031°14'0 0.0
2017-Nov-17 10:26N 46°34' E 031°14'0 0.0
2017-Nov-17 05:26N 46°34' E 031°14'0 0.2
2017-Nov-17 04:56N 46°34' E 031°14'1 1.7
2017-Nov-17 04:28N 46°35' E 031°15'3 6.0
2017-Nov-17 04:00N 46°35' E 031°19'5 9.4
2017-Nov-17 03:30N 46°35' E 031°26'4 7.7
2017-Nov-17 03:00N 46°35' E 031°32'5 9.3
2017-Nov-17 02:30N 46°36' E 031°38'5 9.2
2017-Nov-17 02:00N 46°36' E 031°45'4 8.7
2017-Nov-17 01:30N 46°37' E 031°51'4 8.5
2017-Nov-17 01:00N 46°39' E 031°56'4 8.9
2017-Nov-17 00:30N 46°44' E 031°56'4 8.7
2017-Nov-17 00:00N 46°48' E 031°53'5 9.8
2017-Nov-16 23:30N 46°52' E 031°58'4 8.4
2017-Nov-16 23:00N 46°55' E 032°01'1 2.3
2017-Nov-16 22:30N 46°56' E 032°01'0 0.0
2017-Nov-16 22:01N 46°56' E 032°01'0 0.0
2017-Nov-16 21:28N 46°56' E 032°01'0 0.0
2017-Nov-16 21:01N 46°56' E 032°01'0 0.0
2017-Nov-16 20:28N 46°56' E 032°01'0 0.0
2017-Nov-16 19:58N 46°56' E 032°01'0 0.0
2017-Nov-16 19:31N 46°56' E 032°01'0 0.0
2017-Nov-16 19:01N 46°56' E 032°01'0 0.0
2017-Nov-16 18:31N 46°56' E 032°01'0 0.0
2017-Nov-16 18:01N 46°56' E 032°01'0 0.0
2017-Nov-16 17:28N 46°56' E 032°01'0 0.0
2017-Nov-16 17:01N 46°56' E 032°01'0 0.0
2017-Nov-16 16:28N 46°56' E 032°01'0 0.0
2017-Nov-16 15:55N 46°56' E 032°01'0 0.0
2017-Nov-16 15:31N 46°56' E 032°01'0 0.0
2017-Nov-16 14:58N 46°56' E 032°01'0 0.0
2017-Nov-16 14:28N 46°56' E 032°01'0 0.0
2017-Nov-16 14:01N 46°56' E 032°01'0 0.0
2017-Nov-16 13:31N 46°56' E 032°01'0 0.0
2017-Nov-16 12:58N 46°56' E 032°01'0 0.0
2017-Nov-16 12:25N 46°56' E 032°01'0 0.0
2017-Nov-16 12:01N 46°56' E 032°01'0 0.0
2017-Nov-16 11:31N 46°56' E 032°01'0 0.0
2017-Nov-16 10:58N 46°56' E 032°01'0 0.0
2017-Nov-16 10:31N 46°56' E 032°01'0 0.0
2017-Nov-16 09:58N 46°56' E 032°01'0 0.0
2017-Nov-16 09:28N 46°56' E 032°01'0 0.0
2017-Nov-16 08:58N 46°56' E 032°01'0 0.0
2017-Nov-16 08:31N 46°56' E 032°01'0 0.0
2017-Nov-16 08:01N 46°56' E 032°01'0 0.0
2017-Nov-16 07:28N 46°56' E 032°01'0 0.0
2017-Nov-16 06:58N 46°56' E 032°01'0 0.0
2017-Nov-16 06:28N 46°56' E 032°01'0 0.0
2017-Nov-16 05:58N 46°56' E 032°01'0 0.0
2017-Nov-16 05:31N 46°56' E 032°01'0 0.0
2017-Nov-16 05:01N 46°56' E 032°01'0 0.0
2017-Nov-16 04:28N 46°56' E 032°01'0 0.0
2017-Nov-16 03:58N 46°56' E 032°01'0 0.0
2017-Nov-16 03:28N 46°56' E 032°01'0 0.0
2017-Nov-16 03:01N 46°56' E 032°01'0 0.0
2017-Nov-16 02:31N 46°56' E 032°01'0 0.0
2017-Nov-16 01:58N 46°56' E 032°01'0 0.0
2017-Nov-16 01:31N 46°56' E 032°01'0 0.0
2017-Nov-16 01:01N 46°56' E 032°01'0 0.0
2017-Nov-16 00:28N 46°56' E 032°01'0 0.0
2017-Nov-16 00:01N 46°56' E 032°01'0 0.0
2017-Nov-15 23:28N 46°56' E 032°01'0 0.0
2017-Nov-15 23:01N 46°56' E 032°01'0 0.0
2017-Nov-15 22:28N 46°56' E 032°01'0 0.0
2017-Nov-15 21:58N 46°56' E 032°01'0 0.0
2017-Nov-15 21:28N 46°56' E 032°01'0 0.0
2017-Nov-15 20:58N 46°56' E 032°01'0 0.0
2017-Nov-15 20:28N 46°56' E 032°01'0 0.0
2017-Nov-15 19:58N 46°56' E 032°01'0 0.0
2017-Nov-15 19:31N 46°56' E 032°01'0 0.0
2017-Nov-15 18:58N 46°56' E 032°01'0 0.0
2017-Nov-15 18:31N 46°56' E 032°01'0 0.0
2017-Nov-15 17:58N 46°56' E 032°01'0 0.0
2017-Nov-15 17:28N 46°56' E 032°01'0 0.0
2017-Nov-15 17:01N 46°56' E 032°01'0 0.0
2017-Nov-15 16:31N 46°56' E 032°01'0 0.0
2017-Nov-15 15:58N 46°56' E 032°01'0 0.0
2017-Nov-15 15:31N 46°56' E 032°01'0 0.0
2017-Nov-15 15:01N 46°56' E 032°01'0 0.0
2017-Nov-15 14:28N 46°56' E 032°01'0 0.0
2017-Nov-15 13:58N 46°56' E 032°01'0 0.0
2017-Nov-15 13:31N 46°56' E 032°01'0 0.0
2017-Nov-15 12:55N 46°56' E 032°01'0 0.0
2017-Nov-15 12:28N 46°56' E 032°01'0 0.0
2017-Nov-15 11:58N 46°56' E 032°01'0 0.0
2017-Nov-15 11:28N 46°56' E 032°01'0 0.0
2017-Nov-15 10:58N 46°56' E 032°01'0 0.0
2017-Nov-15 10:28N 46°56' E 032°01'0 0.0
2017-Nov-15 10:01N 46°56' E 032°01'0 0.0
2017-Nov-15 09:31N 46°56' E 032°01'0 0.0
2017-Nov-15 08:58N 46°56' E 032°01'0 0.0
2017-Nov-15 08:28N 46°56' E 032°01'0 0.0
2017-Nov-15 08:01N 46°56' E 032°01'0 0.0
2017-Nov-15 07:28N 46°56' E 032°01'0 0.0
2017-Nov-15 07:01N 46°56' E 032°01'0 0.0
2017-Nov-15 06:28N 46°56' E 032°01'0 0.0
2017-Nov-15 05:58N 46°56' E 032°01'0 0.0
2017-Nov-15 05:28N 46°56' E 032°01'0 0.0
2017-Nov-15 04:58N 46°56' E 032°01'0 0.0
2017-Nov-15 04:28N 46°56' E 032°01'0 0.0
2017-Nov-15 04:01N 46°56' E 032°01'0 0.0
2017-Nov-15 03:28N 46°56' E 032°01'0 0.0
2017-Nov-15 02:58N 46°56' E 032°01'0 0.0
2017-Nov-15 02:28N 46°56' E 032°01'0 0.0
2017-Nov-15 01:58N 46°56' E 032°01'0 0.0
2017-Nov-15 01:28N 46°56' E 032°01'0 0.0
2017-Nov-15 01:01N 46°56' E 032°01'0 0.0
2017-Nov-15 00:28N 46°56' E 032°01'0 0.0
2017-Nov-14 23:58N 46°56' E 032°01'0 0.0
2017-Nov-14 23:31N 46°56' E 032°01'0 0.0
2017-Nov-14 23:01N 46°56' E 032°01'0 0.0
2017-Nov-14 22:31N 46°56' E 032°01'0 0.0
2017-Nov-14 21:58N 46°56' E 032°01'0 0.0
2017-Nov-14 21:28N 46°56' E 032°01'0 0.0
2017-Nov-14 21:01N 46°56' E 032°01'0 0.0
2017-Nov-14 20:28N 46°56' E 032°01'0 0.0
2017-Nov-14 20:01N 46°56' E 032°01'0 0.0
2017-Nov-14 19:28N 46°56' E 032°01'0 0.0
2017-Nov-14 19:01N 46°56' E 032°01'0 0.0
2017-Nov-14 18:28N 46°56' E 032°01'0 0.0
2017-Nov-14 17:58N 46°56' E 032°01'0 0.0
2017-Nov-14 17:28N 46°56' E 032°01'0 0.0
2017-Nov-14 16:58N 46°56' E 032°01'0 0.0
2017-Nov-14 16:28N 46°56' E 032°01'0 0.0
2017-Nov-14 15:58N 46°56' E 032°01'0 0.0
2017-Nov-14 15:28N 46°56' E 032°01'0 0.0
2017-Nov-14 15:01N 46°56' E 032°01'0 0.0
2017-Nov-14 14:28N 46°56' E 032°01'0 0.0
2017-Nov-14 14:01N 46°56' E 032°01'0 0.0
2017-Nov-14 13:28N 46°56' E 032°01'0 0.0
2017-Nov-14 12:58N 46°56' E 032°01'0 0.0
2017-Nov-14 12:31N 46°56' E 032°01'0 0.0
2017-Nov-14 11:58N 46°56' E 032°01'0 0.0
2017-Nov-14 11:25N 46°56' E 032°01'0 0.0
2017-Nov-14 10:58N 46°56' E 032°01'0 0.0
2017-Nov-14 10:28N 46°56' E 032°01'0 0.0
2017-Nov-14 10:01N 46°56' E 032°01'0 0.0
2017-Nov-14 09:28N 46°56' E 032°01'0 0.0
2017-Nov-14 08:58N 46°56' E 032°01'0 0.0
2017-Nov-14 08:31N 46°56' E 032°01'0 0.0
2017-Nov-14 07:58N 46°56' E 032°01'0 0.0
2017-Nov-14 07:31N 46°56' E 032°01'0 0.0
2017-Nov-14 07:01N 46°56' E 032°01'0 0.0
2017-Nov-14 06:31N 46°56' E 032°01'0 0.0
2017-Nov-14 06:01N 46°56' E 032°01'0 0.0
2017-Nov-14 05:31N 46°56' E 032°01'0 0.0
2017-Nov-14 05:01N 46°56' E 032°01'0 0.0
2017-Nov-14 04:31N 46°56' E 032°01'0 0.0
2017-Nov-14 03:55N 46°56' E 032°01'0 0.0
2017-Nov-14 03:31N 46°56' E 032°01'0 0.0
2017-Nov-14 03:01N 46°56' E 032°01'0 0.0
2017-Nov-14 02:28N 46°56' E 032°01'0 0.0
2017-Nov-14 02:01N 46°56' E 032°01'0 0.0
2017-Nov-14 01:28N 46°56' E 032°01'0 0.0
2017-Nov-14 00:58N 46°56' E 032°01'0 0.0
2017-Nov-14 00:28N 46°56' E 032°01'0 0.0
2017-Nov-14 00:01N 46°56' E 032°01'0 0.0
2017-Nov-13 23:31N 46°56' E 032°01'0 0.0
2017-Nov-13 23:01N 46°56' E 032°01'0 0.0
2017-Nov-13 22:28N 46°56' E 032°01'0 0.0
2017-Nov-13 21:58N 46°56' E 032°01'0 0.0
2017-Nov-13 01:58N 46°56' E 032°01'0 0.0
2017-Nov-13 01:31N 46°56' E 032°01'0 0.0
2017-Nov-13 00:58N 46°56' E 032°01'0 0.0
2017-Nov-13 00:31N 46°56' E 032°01'0 0.0
2017-Nov-13 00:01N 46°56' E 032°01'0 0.0
2017-Nov-12 23:28N 46°56' E 032°01'0 0.0
2017-Nov-12 23:01N 46°56' E 032°01'0 0.0
2017-Nov-12 22:31N 46°56' E 032°01'0 0.0
2017-Nov-12 21:58N 46°56' E 032°01'0 0.0
2017-Nov-12 21:28N 46°56' E 032°01'0 0.0
2017-Nov-12 21:01N 46°56' E 032°01'0 0.0
2017-Nov-12 20:28N 46°56' E 032°01'0 0.0
2017-Nov-12 19:58N 46°56' E 032°01'0 0.0
2017-Nov-12 19:28N 46°56' E 032°01'0 0.0
2017-Nov-12 18:58N 46°56' E 032°01'0 0.0
2017-Nov-12 18:31N 46°56' E 032°01'0 0.0
2017-Nov-12 17:58N 46°56' E 032°01'0 0.0
2017-Nov-12 17:28N 46°56' E 032°01'0 0.0
2017-Nov-12 16:58N 46°56' E 032°01'0 0.0
2017-Nov-12 16:31N 46°56' E 032°01'0 0.0
2017-Nov-12 15:58N 46°56' E 032°01'0 0.0
2017-Nov-12 15:28N 46°56' E 032°01'0 0.0
2017-Nov-12 15:01N 46°56' E 032°01'0 0.0
2017-Nov-12 14:28N 46°56' E 032°01'0 0.0
2017-Nov-12 13:58N 46°56' E 032°01'0 0.0
2017-Nov-12 13:28N 46°56' E 032°01'0 0.0
2017-Nov-12 13:01N 46°56' E 032°01'0 0.0
2017-Nov-12 12:28N 46°56' E 032°01'0 0.0
2017-Nov-12 11:58N 46°56' E 032°01'0 0.0
2017-Nov-12 11:31N 46°56' E 032°01'0 0.0
2017-Nov-12 10:58N 46°56' E 032°01'0 0.0
2017-Nov-12 10:31N 46°56' E 032°01'0 0.0
2017-Nov-12 10:01N 46°56' E 032°01'0 0.0
2017-Nov-12 09:28N 46°56' E 032°01'0 0.0
2017-Nov-12 09:01N 46°56' E 032°01'0 0.0
2017-Nov-12 08:28N 46°56' E 032°01'0 0.0
2017-Nov-12 07:58N 46°56' E 032°01'0 0.0
2017-Nov-12 07:31N 46°56' E 032°01'0 0.0
2017-Nov-12 06:58N 46°56' E 032°01'0 0.0
2017-Nov-12 06:25N 46°56' E 032°01'0 0.0
2017-Nov-12 05:58N 46°56' E 032°01'0 0.0
2017-Nov-12 05:31N 46°56' E 032°01'0 0.0
2017-Nov-12 05:01N 46°56' E 032°01'0 0.0
2017-Nov-12 04:31N 46°56' E 032°01'0 0.0
2017-Nov-12 03:55N 46°56' E 032°01'0 0.0
2017-Nov-12 03:25N 46°56' E 032°01'0 0.0
2017-Nov-12 02:55N 46°56' E 032°01'0 0.0
2017-Nov-12 02:28N 46°56' E 032°01'0 0.0
2017-Nov-12 01:58N 46°56' E 032°01'0 0.0
2017-Nov-12 01:28N 46°56' E 032°01'0 0.0
2017-Nov-12 00:58N 46°56' E 032°01'0 0.0
2017-Nov-12 00:28N 46°56' E 032°01'0 0.0
2017-Nov-11 23:58N 46°56' E 032°01'0 0.0
2017-Nov-11 23:28N 46°56' E 032°01'0 0.0
2017-Nov-11 22:58N 46°56' E 032°01'0 0.0
2017-Nov-11 22:28N 46°56' E 032°01'0 0.0
2017-Nov-11 21:58N 46°56' E 032°01'0 0.0
2017-Nov-11 21:31N 46°56' E 032°01'0 0.0
2017-Nov-11 20:58N 46°56' E 032°01'0 0.0
2017-Nov-11 20:31N 46°56' E 032°01'0 0.0
2017-Nov-11 19:58N 46°56' E 032°01'0 0.0
2017-Nov-11 19:31N 46°56' E 032°01'0 0.0
2017-Nov-11 18:58N 46°56' E 032°01'0 0.0
2017-Nov-11 18:28N 46°56' E 032°01'0 0.0
2017-Nov-11 17:58N 46°56' E 032°01'0 0.0
2017-Nov-11 17:31N 46°56' E 032°01'0 0.0
2017-Nov-11 17:01N 46°56' E 032°01'0 0.0
2017-Nov-11 16:25N 46°56' E 032°01'0 0.0
2017-Nov-11 16:01N 46°56' E 032°01'0 0.0
2017-Nov-11 15:31N 46°56' E 032°01'0 0.0
2017-Nov-11 15:01N 46°56' E 032°01'0 0.0
2017-Nov-11 14:31N 46°56' E 032°01'0 0.0
2017-Nov-11 14:01N 46°56' E 032°01'0 0.0
2017-Nov-11 13:28N 46°56' E 032°01'0 0.0
2017-Nov-11 12:58N 46°56' E 032°01'0 0.0
2017-Nov-11 12:28N 46°56' E 032°01'0 0.0
2017-Nov-11 12:01N 46°56' E 032°01'0 0.0
2017-Nov-11 11:31N 46°56' E 032°01'0 0.0
2017-Nov-11 10:58N 46°56' E 032°01'0 0.0
2017-Nov-11 10:28N 46°56' E 032°01'0 0.0
2017-Nov-11 10:01N 46°56' E 032°01'0 0.0
2017-Nov-11 09:31N 46°56' E 032°01'0 0.0
2017-Nov-11 08:58N 46°56' E 032°01'0 0.0
2017-Nov-11 08:31N 46°56' E 032°01'0 0.0
2017-Nov-11 07:58N 46°56' E 032°01'0 0.0
2017-Nov-11 07:28N 46°56' E 032°01'0 0.0
2017-Nov-11 07:01N 46°56' E 032°01'0 0.0
2017-Nov-11 06:28N 46°56' E 032°01'0 0.0
2017-Nov-11 05:58N 46°56' E 032°01'0 0.0
2017-Nov-11 05:28N 46°56' E 032°01'0 0.0
2017-Nov-11 04:58N 46°56' E 032°01'0 0.0
2017-Nov-11 04:31N 46°56' E 032°01'0 0.0
2017-Nov-11 03:58N 46°56' E 032°01'0 0.0
2017-Nov-11 03:28N 46°56' E 032°01'0 0.0
2017-Nov-11 03:01N 46°56' E 032°01'0 0.0
2017-Nov-11 02:28N 46°56' E 032°01'0 0.0
2017-Nov-11 01:58N 46°56' E 032°01'0 0.0
2017-Nov-11 01:28N 46°56' E 032°01'0 0.0
2017-Nov-11 00:58N 46°56' E 032°01'0 0.0
2017-Nov-11 00:31N 46°56' E 032°01'0 0.0
2017-Nov-10 23:58N 46°56' E 032°01'0 0.0
2017-Nov-10 23:31N 46°56' E 032°01'0 0.0
2017-Nov-10 23:01N 46°56' E 032°01'0 0.0
2017-Nov-10 22:28N 46°56' E 032°01'0 0.0
2017-Nov-10 21:58N 46°56' E 032°01'0 0.0
2017-Nov-10 21:31N 46°56' E 032°01'0 0.0
2017-Nov-10 21:00N 46°56' E 032°01'0 0.6
2017-Nov-10 20:31N 46°56' E 032°01'0 0.0
2017-Nov-10 19:59N 46°56' E 032°01'0 0.0
2017-Nov-10 19:28N 46°56' E 032°01'0 0.0
2017-Nov-10 18:58N 46°56' E 032°01'0 0.0
2017-Nov-10 18:28N 46°56' E 032°01'0 0.0
2017-Nov-10 17:58N 46°56' E 032°01'0 0.0
2017-Nov-10 17:28N 46°56' E 032°01'0 0.0
2017-Nov-10 16:58N 46°56' E 032°01'0 0.0
2017-Nov-10 16:28N 46°56' E 032°01'0 0.0
2017-Nov-10 15:58N 46°56' E 032°01'0 0.0
2017-Nov-10 15:29N 46°56' E 032°01'0 0.0
2017-Nov-10 14:58N 46°56' E 032°01'0 0.0
2017-Nov-10 14:28N 46°56' E 032°01'0 0.1
2017-Nov-10 13:58N 46°56' E 032°01'0 0.0
2017-Nov-10 13:29N 46°56' E 032°01'0 0.0
2017-Nov-10 12:58N 46°56' E 032°01'0 0.0
2017-Nov-10 12:28N 46°56' E 032°01'0 0.0
2017-Nov-10 11:58N 46°56' E 032°01'0 0.0
2017-Nov-10 11:28N 46°56' E 032°01'0 0.0
2017-Nov-10 10:58N 46°56' E 032°01'0 0.0
2017-Nov-10 10:25N 46°56' E 032°01'0 0.0
2017-Nov-10 09:58N 46°56' E 032°01'0 0.0
2017-Nov-10 09:28N 46°56' E 032°01'0 0.0
2017-Nov-10 08:59N 46°56' E 032°01'0 0.0
2017-Nov-10 08:28N 46°56' E 032°01'0 0.0
2017-Nov-10 07:58N 46°56' E 032°01'0 0.0
2017-Nov-10 07:28N 46°56' E 032°01'0 0.1
2017-Nov-10 06:58N 46°56' E 032°01'0 0.0
2017-Nov-10 06:28N 46°56' E 032°01'0 0.0
2017-Nov-10 05:58N 46°56' E 032°01'0 0.0
2017-Nov-10 05:28N 46°56' E 032°01'0 0.1
2017-Nov-10 04:58N 46°56' E 032°01'0 0.2
2017-Nov-10 04:28N 46°56' E 032°01'0 0.8
2017-Nov-10 04:00N 46°56' E 032°01'4 8.1
2017-Nov-10 03:30N 46°52' E 031°59'611.4
2017-Nov-10 03:00N 46°48' E 031°53'510.3
2017-Nov-10 02:31N 46°43' E 031°56'510.8
2017-Nov-10 02:01N 46°38' E 031°54'510.9
2017-Nov-10 01:30N 46°36' E 031°47'511.0
2017-Nov-10 01:00N 46°36' E 031°39'510.6
2017-Nov-10 00:31N 46°35' E 031°32'1110.4
2017-Nov-09 23:24N 46°35' E 031°15'911.1
2017-Nov-09 22:36N 46°34' E 031°02'1 6.5
2017-Nov-09 22:24N 46°33' E 031°00'2 5.4
2017-Nov-09 21:56N 46°32' E 030°57'3 6.6
2017-Nov-09 21:31N 46°30' E 030°57'3 5.4
2017-Nov-09 20:57N 46°26' E 030°57'4 8.9
2017-Nov-09 20:30N 46°23' E 030°59'6 0.1
2017-Nov-07 22:34N 46°19' E 031°05'  
Track history (hours):
 
Tides and Currents Weather Stations Pressure Air Temp Water Temp Dewpoint Dewpoint Depression Visibility Wind Speed Wind Dir Waves Ship Positions

Overseas Santorini

Last reported at 2017-Nov-17 19:56 UTC. Time now 2017-Nov-17 21:35 UTC.
Position N 46°34' E 031°14'.

Length 183 m; draft 11 m.

Type: Ship (hazmat cat A). MMSI: 538003772.

Date/timePositionNaut miles runAvg speedWind from/ knotsBaromVisibWave heightAir tempDewpointWater temp
2017-Nov-17 19:56N 46°34' E 031°14'0 0.0
2017-Nov-17 17:50N 46°34' E 031°14'0 0.0
2017-Nov-17 12:14N 46°34' E 031°14'0 0.0
2017-Nov-17 11:50N 46°34' E 031°14'0 0.0
2017-Nov-17 11:20N 46°34' E 031°14'0 0.0
2017-Nov-17 10:56N 46°34' E 031°14'0 0.0
2017-Nov-17 10:26N 46°34' E 031°14'0 0.0
2017-Nov-17 05:26N 46°34' E 031°14'0 0.2
2017-Nov-17 04:56N 46°34' E 031°14'1 1.7
2017-Nov-17 04:28N 46°35' E 031°15'3 6.0
2017-Nov-17 04:00N 46°35' E 031°19'5 9.4
2017-Nov-17 03:30N 46°35' E 031°26'4 7.7
2017-Nov-17 03:00N 46°35' E 031°32'5 9.3
2017-Nov-17 02:30N 46°36' E 031°38'5 9.2
2017-Nov-17 02:00N 46°36' E 031°45'4 8.7
2017-Nov-17 01:30N 46°37' E 031°51'4 8.5
2017-Nov-17 01:00N 46°39' E 031°56'4 8.9
2017-Nov-17 00:30N 46°44' E 031°56'4 8.7
2017-Nov-17 00:00N 46°48' E 031°53'5 9.8
2017-Nov-16 23:30N 46°52' E 031°58'4 8.4
2017-Nov-16 23:00N 46°55' E 032°01'1 2.3
2017-Nov-16 22:30N 46°56' E 032°01'0 0.0
2017-Nov-16 22:01N 46°56' E 032°01'0 0.0
2017-Nov-16 21:28N 46°56' E 032°01'0 0.0
2017-Nov-16 21:01N 46°56' E 032°01'0 0.0
2017-Nov-16 20:28N 46°56' E 032°01'0 0.0
2017-Nov-16 19:58N 46°56' E 032°01'0 0.0
2017-Nov-16 19:31N 46°56' E 032°01'0 0.0
2017-Nov-16 19:01N 46°56' E 032°01'0 0.0
2017-Nov-16 18:31N 46°56' E 032°01'0 0.0
2017-Nov-16 18:01N 46°56' E 032°01'0 0.0
2017-Nov-16 17:28N 46°56' E 032°01'0 0.0
2017-Nov-16 17:01N 46°56' E 032°01'0 0.0
2017-Nov-16 16:28N 46°56' E 032°01'0 0.0
2017-Nov-16 15:55N 46°56' E 032°01'0 0.0
2017-Nov-16 15:31N 46°56' E 032°01'0 0.0
2017-Nov-16 14:58N 46°56' E 032°01'0 0.0
2017-Nov-16 14:28N 46°56' E 032°01'0 0.0
2017-Nov-16 14:01N 46°56' E 032°01'0 0.0
2017-Nov-16 13:31N 46°56' E 032°01'0 0.0
2017-Nov-16 12:58N 46°56' E 032°01'0 0.0
2017-Nov-16 12:25N 46°56' E 032°01'0 0.0
2017-Nov-16 12:01N 46°56' E 032°01'0 0.0
2017-Nov-16 11:31N 46°56' E 032°01'0 0.0
2017-Nov-16 10:58N 46°56' E 032°01'0 0.0
2017-Nov-16 10:31N 46°56' E 032°01'0 0.0
2017-Nov-16 09:58N 46°56' E 032°01'0 0.0
2017-Nov-16 09:28N 46°56' E 032°01'0 0.0
2017-Nov-16 08:58N 46°56' E 032°01'0 0.0
2017-Nov-16 08:31N 46°56' E 032°01'0 0.0
2017-Nov-16 08:01N 46°56' E 032°01'0 0.0
2017-Nov-16 07:28N 46°56' E 032°01'0 0.0
2017-Nov-16 06:58N 46°56' E 032°01'0 0.0
2017-Nov-16 06:28N 46°56' E 032°01'0 0.0
2017-Nov-16 05:58N 46°56' E 032°01'0 0.0
2017-Nov-16 05:31N 46°56' E 032°01'0 0.0
2017-Nov-16 05:01N 46°56' E 032°01'0 0.0
2017-Nov-16 04:28N 46°56' E 032°01'0 0.0
2017-Nov-16 03:58N 46°56' E 032°01'0 0.0
2017-Nov-16 03:28N 46°56' E 032°01'0 0.0
2017-Nov-16 03:01N 46°56' E 032°01'0 0.0
2017-Nov-16 02:31N 46°56' E 032°01'0 0.0
2017-Nov-16 01:58N 46°56' E 032°01'0 0.0
2017-Nov-16 01:31N 46°56' E 032°01'0 0.0
2017-Nov-16 01:01N 46°56' E 032°01'0 0.0
2017-Nov-16 00:28N 46°56' E 032°01'0 0.0
2017-Nov-16 00:01N 46°56' E 032°01'0 0.0
2017-Nov-15 23:28N 46°56' E 032°01'0 0.0
2017-Nov-15 23:01N 46°56' E 032°01'0 0.0
2017-Nov-15 22:28N 46°56' E 032°01'0 0.0
2017-Nov-15 21:58N 46°56' E 032°01'0 0.0
2017-Nov-15 21:28N 46°56' E 032°01'0 0.0
2017-Nov-15 20:58N 46°56' E 032°01'0 0.0
2017-Nov-15 20:28N 46°56' E 032°01'0 0.0
2017-Nov-15 19:58N 46°56' E 032°01'0 0.0
2017-Nov-15 19:31N 46°56' E 032°01'0 0.0
2017-Nov-15 18:58N 46°56' E 032°01'0 0.0
2017-Nov-15 18:31N 46°56' E 032°01'0 0.0
2017-Nov-15 17:58N 46°56' E 032°01'0 0.0
2017-Nov-15 17:28N 46°56' E 032°01'0 0.0
2017-Nov-15 17:01N 46°56' E 032°01'0 0.0
2017-Nov-15 16:31N 46°56' E 032°01'0 0.0
2017-Nov-15 15:58N 46°56' E 032°01'0 0.0
2017-Nov-15 15:31N 46°56' E 032°01'0 0.0
2017-Nov-15 15:01N 46°56' E 032°01'0 0.0
2017-Nov-15 14:28N 46°56' E 032°01'0 0.0
2017-Nov-15 13:58N 46°56' E 032°01'0 0.0
2017-Nov-15 13:31N 46°56' E 032°01'0 0.0
2017-Nov-15 12:55N 46°56' E 032°01'0 0.0
2017-Nov-15 12:28N 46°56' E 032°01'0 0.0
2017-Nov-15 11:58N 46°56' E 032°01'0 0.0
2017-Nov-15 11:28N 46°56' E 032°01'0 0.0
2017-Nov-15 10:58N 46°56' E 032°01'0 0.0
2017-Nov-15 10:28N 46°56' E 032°01'0 0.0
2017-Nov-15 10:01N 46°56' E 032°01'0 0.0
2017-Nov-15 09:31N 46°56' E 032°01'0 0.0
2017-Nov-15 08:58N 46°56' E 032°01'0 0.0
2017-Nov-15 08:28N 46°56' E 032°01'0 0.0
2017-Nov-15 08:01N 46°56' E 032°01'0 0.0
2017-Nov-15 07:28N 46°56' E 032°01'0 0.0
2017-Nov-15 07:01N 46°56' E 032°01'0 0.0
2017-Nov-15 06:28N 46°56' E 032°01'0 0.0
2017-Nov-15 05:58N 46°56' E 032°01'0 0.0
2017-Nov-15 05:28N 46°56' E 032°01'0 0.0
2017-Nov-15 04:58N 46°56' E 032°01'0 0.0
2017-Nov-15 04:28N 46°56' E 032°01'0 0.0
2017-Nov-15 04:01N 46°56' E 032°01'0 0.0
2017-Nov-15 03:28N 46°56' E 032°01'0 0.0
2017-Nov-15 02:58N 46°56' E 032°01'0 0.0
2017-Nov-15 02:28N 46°56' E 032°01'0 0.0
2017-Nov-15 01:58N 46°56' E 032°01'0 0.0
2017-Nov-15 01:28N 46°56' E 032°01'0 0.0
2017-Nov-15 01:01N 46°56' E 032°01'0 0.0
2017-Nov-15 00:28N 46°56' E 032°01'0 0.0
2017-Nov-14 23:58N 46°56' E 032°01'0 0.0
2017-Nov-14 23:31N 46°56' E 032°01'0 0.0
2017-Nov-14 23:01N 46°56' E 032°01'0 0.0
2017-Nov-14 22:31N 46°56' E 032°01'0 0.0
2017-Nov-14 21:58N 46°56' E 032°01'0 0.0
2017-Nov-14 21:28N 46°56' E 032°01'0 0.0
2017-Nov-14 21:01N 46°56' E 032°01'0 0.0
2017-Nov-14 20:28N 46°56' E 032°01'0 0.0
2017-Nov-14 20:01N 46°56' E 032°01'0 0.0
2017-Nov-14 19:28N 46°56' E 032°01'0 0.0
2017-Nov-14 19:01N 46°56' E 032°01'0 0.0
2017-Nov-14 18:28N 46°56' E 032°01'0 0.0
2017-Nov-14 17:58N 46°56' E 032°01'0 0.0
2017-Nov-14 17:28N 46°56' E 032°01'0 0.0
2017-Nov-14 16:58N 46°56' E 032°01'0 0.0
2017-Nov-14 16:28N 46°56' E 032°01'0 0.0
2017-Nov-14 15:58N 46°56' E 032°01'0 0.0
2017-Nov-14 15:28N 46°56' E 032°01'0 0.0
2017-Nov-14 15:01N 46°56' E 032°01'0 0.0
2017-Nov-14 14:28N 46°56' E 032°01'0 0.0
2017-Nov-14 14:01N 46°56' E 032°01'0 0.0
2017-Nov-14 13:28N 46°56' E 032°01'0 0.0
2017-Nov-14 12:58N 46°56' E 032°01'0 0.0
2017-Nov-14 12:31N 46°56' E 032°01'0 0.0
2017-Nov-14 11:58N 46°56' E 032°01'0 0.0
2017-Nov-14 11:25N 46°56' E 032°01'0 0.0
2017-Nov-14 10:58N 46°56' E 032°01'0 0.0
2017-Nov-14 10:28N 46°56' E 032°01'0 0.0
2017-Nov-14 10:01N 46°56' E 032°01'0 0.0
2017-Nov-14 09:28N 46°56' E 032°01'0 0.0
2017-Nov-14 08:58N 46°56' E 032°01'0 0.0
2017-Nov-14 08:31N 46°56' E 032°01'0 0.0
2017-Nov-14 07:58N 46°56' E 032°01'0 0.0
2017-Nov-14 07:31N 46°56' E 032°01'0 0.0
2017-Nov-14 07:01N 46°56' E 032°01'0 0.0
2017-Nov-14 06:31N 46°56' E 032°01'0 0.0
2017-Nov-14 06:01N 46°56' E 032°01'0 0.0
2017-Nov-14 05:31N 46°56' E 032°01'0 0.0
2017-Nov-14 05:01N 46°56' E 032°01'0 0.0
2017-Nov-14 04:31N 46°56' E 032°01'0 0.0
2017-Nov-14 03:55N 46°56' E 032°01'0 0.0
2017-Nov-14 03:31N 46°56' E 032°01'0 0.0
2017-Nov-14 03:01N 46°56' E 032°01'0 0.0
2017-Nov-14 02:28N 46°56' E 032°01'0 0.0
2017-Nov-14 02:01N 46°56' E 032°01'0 0.0
2017-Nov-14 01:28N 46°56' E 032°01'0 0.0
2017-Nov-14 00:58N 46°56' E 032°01'0 0.0
2017-Nov-14 00:28N 46°56' E 032°01'0 0.0
2017-Nov-14 00:01N 46°56' E 032°01'0 0.0
2017-Nov-13 23:31N 46°56' E 032°01'0 0.0
2017-Nov-13 23:01N 46°56' E 032°01'0 0.0
2017-Nov-13 22:28N 46°56' E 032°01'0 0.0
2017-Nov-13 21:58N 46°56' E 032°01'0 0.0
2017-Nov-13 01:58N 46°56' E 032°01'0 0.0
2017-Nov-13 01:31N 46°56' E 032°01'0 0.0
2017-Nov-13 00:58N 46°56' E 032°01'0 0.0
2017-Nov-13 00:31N 46°56' E 032°01'0 0.0
2017-Nov-13 00:01N 46°56' E 032°01'0 0.0
2017-Nov-12 23:28N 46°56' E 032°01'0 0.0
2017-Nov-12 23:01N 46°56' E 032°01'0 0.0
2017-Nov-12 22:31N 46°56' E 032°01'0 0.0
2017-Nov-12 21:58N 46°56' E 032°01'0 0.0
2017-Nov-12 21:28N 46°56' E 032°01'0 0.0
2017-Nov-12 21:01N 46°56' E 032°01'0 0.0
2017-Nov-12 20:28N 46°56' E 032°01'0 0.0
2017-Nov-12 19:58N 46°56' E 032°01'0 0.0
2017-Nov-12 19:28N 46°56' E 032°01'0 0.0
2017-Nov-12 18:58N 46°56' E 032°01'0 0.0
2017-Nov-12 18:31N 46°56' E 032°01'0 0.0
2017-Nov-12 17:58N 46°56' E 032°01'0 0.0
2017-Nov-12 17:28N 46°56' E 032°01'0 0.0
2017-Nov-12 16:58N 46°56' E 032°01'0 0.0
2017-Nov-12 16:31N 46°56' E 032°01'0 0.0
2017-Nov-12 15:58N 46°56' E 032°01'0 0.0
2017-Nov-12 15:28N 46°56' E 032°01'0 0.0
2017-Nov-12 15:01N 46°56' E 032°01'0 0.0
2017-Nov-12 14:28N 46°56' E 032°01'0 0.0
2017-Nov-12 13:58N 46°56' E 032°01'0 0.0
2017-Nov-12 13:28N 46°56' E 032°01'0 0.0
2017-Nov-12 13:01N 46°56' E 032°01'0 0.0
2017-Nov-12 12:28N 46°56' E 032°01'0 0.0
2017-Nov-12 11:58N 46°56' E 032°01'0 0.0
2017-Nov-12 11:31N 46°56' E 032°01'0 0.0
2017-Nov-12 10:58N 46°56' E 032°01'0 0.0
2017-Nov-12 10:31N 46°56' E 032°01'0 0.0
2017-Nov-12 10:01N 46°56' E 032°01'0 0.0
2017-Nov-12 09:28N 46°56' E 032°01'0 0.0
2017-Nov-12 09:01N 46°56' E 032°01'0 0.0
2017-Nov-12 08:28N 46°56' E 032°01'0 0.0
2017-Nov-12 07:58N 46°56' E 032°01'0 0.0
2017-Nov-12 07:31N 46°56' E 032°01'0 0.0
2017-Nov-12 06:58N 46°56' E 032°01'0 0.0
2017-Nov-12 06:25N 46°56' E 032°01'0 0.0
2017-Nov-12 05:58N 46°56' E 032°01'0 0.0
2017-Nov-12 05:31N 46°56' E 032°01'0 0.0
2017-Nov-12 05:01N 46°56' E 032°01'0 0.0
2017-Nov-12 04:31N 46°56' E 032°01'0 0.0
2017-Nov-12 03:55N 46°56' E 032°01'0 0.0
2017-Nov-12 03:25N 46°56' E 032°01'0 0.0
2017-Nov-12 02:55N 46°56' E 032°01'0 0.0
2017-Nov-12 02:28N 46°56' E 032°01'0 0.0
2017-Nov-12 01:58N 46°56' E 032°01'0 0.0
2017-Nov-12 01:28N 46°56' E 032°01'0 0.0
2017-Nov-12 00:58N 46°56' E 032°01'0 0.0
2017-Nov-12 00:28N 46°56' E 032°01'0 0.0
2017-Nov-11 23:58N 46°56' E 032°01'0 0.0
2017-Nov-11 23:28N 46°56' E 032°01'0 0.0
2017-Nov-11 22:58N 46°56' E 032°01'0 0.0
2017-Nov-11 22:28N 46°56' E 032°01'0 0.0
2017-Nov-11 21:58N 46°56' E 032°01'0 0.0
2017-Nov-11 21:31N 46°56' E 032°01'0 0.0
2017-Nov-11 20:58N 46°56' E 032°01'0 0.0
2017-Nov-11 20:31N 46°56' E 032°01'0 0.0
2017-Nov-11 19:58N 46°56' E 032°01'0 0.0
2017-Nov-11 19:31N 46°56' E 032°01'0 0.0
2017-Nov-11 18:58N 46°56' E 032°01'0 0.0
2017-Nov-11 18:28N 46°56' E 032°01'0 0.0
2017-Nov-11 17:58N 46°56' E 032°01'0 0.0
2017-Nov-11 17:31N 46°56' E 032°01'0 0.0
2017-Nov-11 17:01N 46°56' E 032°01'0 0.0
2017-Nov-11 16:25N 46°56' E 032°01'0 0.0
2017-Nov-11 16:01N 46°56' E 032°01'0 0.0
2017-Nov-11 15:31N 46°56' E 032°01'0 0.0
2017-Nov-11 15:01N 46°56' E 032°01'0 0.0
2017-Nov-11 14:31N 46°56' E 032°01'0 0.0
2017-Nov-11 14:01N 46°56' E 032°01'0 0.0
2017-Nov-11 13:28N 46°56' E 032°01'0 0.0
2017-Nov-11 12:58N 46°56' E 032°01'0 0.0
2017-Nov-11 12:28N 46°56' E 032°01'0 0.0
2017-Nov-11 12:01N 46°56' E 032°01'0 0.0
2017-Nov-11 11:31N 46°56' E 032°01'0 0.0
2017-Nov-11 10:58N 46°56' E 032°01'0 0.0
2017-Nov-11 10:28N 46°56' E 032°01'0 0.0
2017-Nov-11 10:01N 46°56' E 032°01'0 0.0
2017-Nov-11 09:31N 46°56' E 032°01'0 0.0
2017-Nov-11 08:58N 46°56' E 032°01'0 0.0
2017-Nov-11 08:31N 46°56' E 032°01'0 0.0
2017-Nov-11 07:58N 46°56' E 032°01'0 0.0
2017-Nov-11 07:28N 46°56' E 032°01'0 0.0
2017-Nov-11 07:01N 46°56' E 032°01'0 0.0
2017-Nov-11 06:28N 46°56' E 032°01'0 0.0
2017-Nov-11 05:58N 46°56' E 032°01'0 0.0
2017-Nov-11 05:28N 46°56' E 032°01'0 0.0
2017-Nov-11 04:58N 46°56' E 032°01'0 0.0
2017-Nov-11 04:31N 46°56' E 032°01'0 0.0
2017-Nov-11 03:58N 46°56' E 032°01'0 0.0
2017-Nov-11 03:28N 46°56' E 032°01'0 0.0
2017-Nov-11 03:01N 46°56' E 032°01'0 0.0
2017-Nov-11 02:28N 46°56' E 032°01'0 0.0
2017-Nov-11 01:58N 46°56' E 032°01'0 0.0
2017-Nov-11 01:28N 46°56' E 032°01'0 0.0
2017-Nov-11 00:58N 46°56' E 032°01'0 0.0
2017-Nov-11 00:31N 46°56' E 032°01'0 0.0
2017-Nov-10 23:58N 46°56' E 032°01'0 0.0
2017-Nov-10 23:31N 46°56' E 032°01'0 0.0
2017-Nov-10 23:01N 46°56' E 032°01'0 0.0
2017-Nov-10 22:28N 46°56' E 032°01'0 0.0
2017-Nov-10 21:58N 46°56' E 032°01'0 0.0
2017-Nov-10 21:31N 46°56' E 032°01'0 0.0
2017-Nov-10 21:00N 46°56' E 032°01'0 0.6
2017-Nov-10 20:31N 46°56' E 032°01'0 0.0
2017-Nov-10 19:59N 46°56' E 032°01'0 0.0
2017-Nov-10 19:28N 46°56' E 032°01'0 0.0
2017-Nov-10 18:58N 46°56' E 032°01'0 0.0
2017-Nov-10 18:28N 46°56' E 032°01'0 0.0
2017-Nov-10 17:58N 46°56' E 032°01'0 0.0
2017-Nov-10 17:28N 46°56' E 032°01'0 0.0
2017-Nov-10 16:58N 46°56' E 032°01'0 0.0
2017-Nov-10 16:28N 46°56' E 032°01'0 0.0
2017-Nov-10 15:58N 46°56' E 032°01'0 0.0
2017-Nov-10 15:29N 46°56' E 032°01'0 0.0
2017-Nov-10 14:58N 46°56' E 032°01'0 0.0
2017-Nov-10 14:28N 46°56' E 032°01'0 0.1
2017-Nov-10 13:58N 46°56' E 032°01'0 0.0
2017-Nov-10 13:29N 46°56' E 032°01'0 0.0
2017-Nov-10 12:58N 46°56' E 032°01'0 0.0
2017-Nov-10 12:28N 46°56' E 032°01'0 0.0
2017-Nov-10 11:58N 46°56' E 032°01'0 0.0
2017-Nov-10 11:28N 46°56' E 032°01'0 0.0
2017-Nov-10 10:58N 46°56' E 032°01'0 0.0
2017-Nov-10 10:25N 46°56' E 032°01'0 0.0
2017-Nov-10 09:58N 46°56' E 032°01'0 0.0
2017-Nov-10 09:28N 46°56' E 032°01'0 0.0
2017-Nov-10 08:59N 46°56' E 032°01'0 0.0
2017-Nov-10 08:28N 46°56' E 032°01'0 0.0
2017-Nov-10 07:58N 46°56' E 032°01'0 0.0
2017-Nov-10 07:28N 46°56' E 032°01'0 0.1
2017-Nov-10 06:58N 46°56' E 032°01'0 0.0
2017-Nov-10 06:28N 46°56' E 032°01'0 0.0
2017-Nov-10 05:58N 46°56' E 032°01'0 0.0
2017-Nov-10 05:28N 46°56' E 032°01'0 0.1
2017-Nov-10 04:58N 46°56' E 032°01'0 0.2
2017-Nov-10 04:28N 46°56' E 032°01'0 0.8
2017-Nov-10 04:00N 46°56' E 032°01'4 8.1
2017-Nov-10 03:30N 46°52' E 031°59'611.4
2017-Nov-10 03:00N 46°48' E 031°53'510.3
2017-Nov-10 02:31N 46°43' E 031°56'510.8
2017-Nov-10 02:01N 46°38' E 031°54'510.9
2017-Nov-10 01:30N 46°36' E 031°47'511.0
2017-Nov-10 01:00N 46°36' E 031°39'510.6
2017-Nov-10 00:31N 46°35' E 031°32'1110.4
2017-Nov-09 23:24N 46°35' E 031°15'911.1
2017-Nov-09 22:36N 46°34' E 031°02'1 6.5
2017-Nov-09 22:24N 46°33' E 031°00'2 5.4
2017-Nov-09 21:56N 46°32' E 030°57'3 6.6
2017-Nov-09 21:31N 46°30' E 030°57'3 5.4
2017-Nov-09 20:57N 46°26' E 030°57'4 8.9
2017-Nov-09 20:30N 46°23' E 030°59'6 0.1
2017-Nov-07 22:34N 46°19' E 031°05'  

Dump ship's entire track history